sensor_id;sensor_type;location;lat;lon;timestamp;P1;durP1;ratioP1;P2;durP2;ratioP2
5845;SDS011;2949;50.778;7.094;2024-03-23T00:55:31;45.47;;;16.80;;
5845;SDS011;2949;50.778;7.094;2024-03-23T00:57:57;49.00;;;18.10;;
5845;SDS011;2949;50.778;7.094;2024-03-23T01:00:22;57.23;;;18.33;;
5845;SDS011;2949;50.778;7.094;2024-03-23T01:02:48;50.73;;;17.60;;
5845;SDS011;2949;50.778;7.094;2024-03-23T01:05:13;59.47;;;17.07;;
5845;SDS011;2949;50.778;7.094;2024-03-23T01:07:39;56.30;;;18.10;;
5845;SDS011;2949;50.778;7.094;2024-03-23T01:10:04;49.40;;;18.10;;
5845;SDS011;2949;50.778;7.094;2024-03-23T01:12:30;46.97;;;16.90;;
5845;SDS011;2949;50.778;7.094;2024-03-23T01:14:55;65.43;;;18.57;;
5845;SDS011;2949;50.778;7.094;2024-03-23T01:17:21;54.03;;;17.00;;
5845;SDS011;2949;50.778;7.094;2024-03-23T01:19:46;54.00;;;16.80;;
5845;SDS011;2949;50.778;7.094;2024-03-23T01:22:12;49.23;;;15.50;;
5845;SDS011;2949;50.778;7.094;2024-03-23T01:24:37;49.83;;;15.83;;
5845;SDS011;2949;50.778;7.094;2024-03-23T01:27:03;48.83;;;14.90;;
5845;SDS011;2949;50.778;7.094;2024-03-23T01:29:29;46.60;;;15.27;;
5845;SDS011;2949;50.778;7.094;2024-03-23T01:31:54;38.83;;;14.30;;
5845;SDS011;2949;50.778;7.094;2024-03-23T01:34:20;39.50;;;14.37;;
5845;SDS011;2949;50.778;7.094;2024-03-23T01:36:46;44.80;;;14.27;;
5845;SDS011;2949;50.778;7.094;2024-03-23T01:39:12;41.40;;;13.47;;
5845;SDS011;2949;50.778;7.094;2024-03-23T01:41:39;43.93;;;14.17;;
5845;SDS011;2949;50.778;7.094;2024-03-23T01:44:07;45.47;;;13.73;;
5845;SDS011;2949;50.778;7.094;2024-03-23T01:46:33;50.30;;;14.87;;
5845;SDS011;2949;50.778;7.094;2024-03-23T01:48:59;46.93;;;15.37;;
5845;SDS011;2949;50.778;7.094;2024-03-23T01:51:25;48.50;;;15.40;;
5845;SDS011;2949;50.778;7.094;2024-03-23T01:53:52;43.20;;;15.07;;
5845;SDS011;2949;50.778;7.094;2024-03-23T01:56:19;40.57;;;13.53;;
5845;SDS011;2949;50.778;7.094;2024-03-23T01:58:45;34.90;;;11.90;;
5845;SDS011;2949;50.778;7.094;2024-03-23T02:01:11;54.70;;;14.33;;
5845;SDS011;2949;50.778;7.094;2024-03-23T02:03:36;31.90;;;11.57;;
5845;SDS011;2949;50.778;7.094;2024-03-23T02:06:02;35.63;;;11.10;;
5845;SDS011;2949;50.778;7.094;2024-03-23T02:08:28;33.80;;;10.10;;
5845;SDS011;2949;50.778;7.094;2024-03-23T02:10:56;36.23;;;11.13;;
5845;SDS011;2949;50.778;7.094;2024-03-23T02:13:21;35.13;;;9.23;;
5845;SDS011;2949;50.778;7.094;2024-03-23T02:15:47;22.13;;;7.27;;
5845;SDS011;2949;50.778;7.094;2024-03-23T02:18:13;10.73;;;5.00;;
5845;SDS011;2949;50.778;7.094;2024-03-23T02:20:38;23.50;;;4.83;;
5845;SDS011;2949;50.778;7.094;2024-03-23T02:23:04;10.23;;;6.00;;
5845;SDS011;2949;50.778;7.094;2024-03-23T02:25:33;11.83;;;5.63;;
5845;SDS011;2949;50.778;7.094;2024-03-23T02:27:59;14.30;;;6.57;;
5845;SDS011;2949;50.778;7.094;2024-03-23T02:30:25;12.80;;;5.80;;
5845;SDS011;2949;50.778;7.094;2024-03-23T02:32:51;11.20;;;5.67;;
5845;SDS011;2949;50.778;7.094;2024-03-23T02:35:17;13.87;;;6.33;;
5845;SDS011;2949;50.778;7.094;2024-03-23T02:37:42;14.87;;;6.07;;
5845;SDS011;2949;50.778;7.094;2024-03-23T02:40:08;8.80;;;5.80;;
5845;SDS011;2949;50.778;7.094;2024-03-23T02:42:33;19.17;;;5.80;;
5845;SDS011;2949;50.778;7.094;2024-03-23T02:44:59;11.03;;;5.73;;
5845;SDS011;2949;50.778;7.094;2024-03-23T02:47:24;10.03;;;5.40;;
5845;SDS011;2949;50.778;7.094;2024-03-23T02:49:50;14.73;;;5.90;;
5845;SDS011;2949;50.778;7.094;2024-03-23T02:52:15;21.73;;;6.03;;
5845;SDS011;2949;50.778;7.094;2024-03-23T02:54:41;15.50;;;6.40;;
5845;SDS011;2949;50.778;7.094;2024-03-23T02:57:09;8.90;;;5.50;;
5845;SDS011;2949;50.778;7.094;2024-03-23T02:59:35;14.67;;;5.33;;
5845;SDS011;2949;50.778;7.094;2024-03-23T03:02:00;13.90;;;4.80;;
5845;SDS011;2949;50.778;7.094;2024-03-23T03:04:26;16.43;;;5.20;;
5845;SDS011;2949;50.778;7.094;2024-03-23T03:06:52;7.93;;;4.93;;
5845;SDS011;2949;50.778;7.094;2024-03-23T03:09:17;9.27;;;4.67;;
5845;SDS011;2949;50.778;7.094;2024-03-23T03:11:43;13.47;;;5.20;;
5845;SDS011;2949;50.778;7.094;2024-03-23T03:14:08;9.80;;;4.23;;
5845;SDS011;2949;50.778;7.094;2024-03-23T03:16:34;8.17;;;2.80;;
5845;SDS011;2949;50.778;7.094;2024-03-23T03:18:59;10.30;;;3.57;;
5845;SDS011;2949;50.778;7.094;2024-03-23T03:21:26;8.07;;;2.60;;
5845;SDS011;2949;50.778;7.094;2024-03-23T03:23:52;10.57;;;2.67;;
5845;SDS011;2949;50.778;7.094;2024-03-23T03:26:17;11.40;;;2.70;;
5845;SDS011;2949;50.778;7.094;2024-03-23T03:28:43;10.63;;;2.40;;
5845;SDS011;2949;50.778;7.094;2024-03-23T03:31:13;7.93;;;3.43;;
5845;SDS011;2949;50.778;7.094;2024-03-23T03:33:43;12.30;;;3.30;;
5845;SDS011;2949;50.778;7.094;2024-03-23T03:36:09;9.73;;;3.60;;
5845;SDS011;2949;50.778;7.094;2024-03-23T03:38:35;17.93;;;2.90;;
5845;SDS011;2949;50.778;7.094;2024-03-23T03:41:01;22.47;;;4.13;;
5845;SDS011;2949;50.778;7.094;2024-03-23T03:43:27;11.40;;;3.40;;
5845;SDS011;2949;50.778;7.094;2024-03-23T03:45:53;18.27;;;4.03;;
5845;SDS011;2949;50.778;7.094;2024-03-23T03:48:22;26.90;;;4.10;;
5845;SDS011;2949;50.778;7.094;2024-03-23T03:50:48;16.23;;;3.90;;
5845;SDS011;2949;50.778;7.094;2024-03-23T03:53:14;18.47;;;5.10;;
5845;SDS011;2949;50.778;7.094;2024-03-23T03:55:39;32.93;;;5.67;;
5845;SDS011;2949;50.778;7.094;2024-03-23T03:58:05;30.03;;;8.93;;
5845;SDS011;2949;50.778;7.094;2024-03-23T04:00:31;44.97;;;7.67;;
5845;SDS011;2949;50.778;7.094;2024-03-23T04:02:56;23.07;;;4.77;;
5845;SDS011;2949;50.778;7.094;2024-03-23T04:05:22;12.53;;;3.50;;
5845;SDS011;2949;50.778;7.094;2024-03-23T04:07:48;13.70;;;3.50;;
5845;SDS011;2949;50.778;7.094;2024-03-23T04:10:13;15.80;;;3.17;;
5845;SDS011;2949;50.778;7.094;2024-03-23T04:12:40;23.03;;;4.27;;
5845;SDS011;2949;50.778;7.094;2024-03-23T04:15:06;12.43;;;3.80;;
5845;SDS011;2949;50.778;7.094;2024-03-23T04:17:31;16.37;;;3.10;;
5845;SDS011;2949;50.778;7.094;2024-03-23T04:19:59;8.20;;;3.40;;
5845;SDS011;2949;50.778;7.094;2024-03-23T04:22:26;28.53;;;5.10;;
5845;SDS011;2949;50.778;7.094;2024-03-23T04:24:55;17.07;;;4.73;;
5845;SDS011;2949;50.778;7.094;2024-03-23T04:27:21;24.97;;;5.53;;
5845;SDS011;2949;50.778;7.094;2024-03-23T04:29:48;18.80;;;4.97;;
5845;SDS011;2949;50.778;7.094;2024-03-23T04:32:16;23.87;;;5.27;;
5845;SDS011;2949;50.778;7.094;2024-03-23T04:34:43;22.37;;;4.97;;
5845;SDS011;2949;50.778;7.094;2024-03-23T04:37:08;25.30;;;4.60;;
5845;SDS011;2949;50.778;7.094;2024-03-23T04:39:35;46.63;;;4.67;;
5845;SDS011;2949;50.778;7.094;2024-03-23T04:42:01;22.13;;;5.00;;
5845;SDS011;2949;50.778;7.094;2024-03-23T04:44:28;19.63;;;4.93;;
5845;SDS011;2949;50.778;7.094;2024-03-23T04:46:53;18.20;;;4.47;;
5845;SDS011;2949;50.778;7.094;2024-03-23T04:49:19;19.83;;;4.30;;
5845;SDS011;2949;50.778;7.094;2024-03-23T04:51:44;39.20;;;4.90;;
5845;SDS011;2949;50.778;7.094;2024-03-23T04:54:14;17.77;;;4.50;;
5845;SDS011;2949;50.778;7.094;2024-03-23T04:56:40;19.00;;;3.70;;
5845;SDS011;2949;50.778;7.094;2024-03-23T04:59:05;30.17;;;4.90;;
5845;SDS011;2949;50.778;7.094;2024-03-23T05:01:31;31.87;;;5.00;;
5845;SDS011;2949;50.778;7.094;2024-03-23T05:03:57;20.53;;;4.70;;
5845;SDS011;2949;50.778;7.094;2024-03-23T05:06:23;15.07;;;3.90;;
5845;SDS011;2949;50.778;7.094;2024-03-23T05:08:49;22.43;;;4.10;;
5845;SDS011;2949;50.778;7.094;2024-03-23T05:11:14;21.93;;;4.60;;
5845;SDS011;2949;50.778;7.094;2024-03-23T05:13:41;29.00;;;3.97;;
5845;SDS011;2949;50.778;7.094;2024-03-23T05:16:07;41.33;;;4.43;;
5845;SDS011;2949;50.778;7.094;2024-03-23T05:18:33;24.40;;;3.50;;
5845;SDS011;2949;50.778;7.094;2024-03-23T05:20:59;20.00;;;2.87;;
5845;SDS011;2949;50.778;7.094;2024-03-23T05:23:24;25.27;;;3.43;;
5845;SDS011;2949;50.778;7.094;2024-03-23T05:25:51;26.70;;;3.57;;
5845;SDS011;2949;50.778;7.094;2024-03-23T05:28:17;15.03;;;4.03;;
5845;SDS011;2949;50.778;7.094;2024-03-23T05:30:43;18.63;;;3.73;;
5845;SDS011;2949;50.778;7.094;2024-03-23T05:33:08;34.07;;;4.27;;
5845;SDS011;2949;50.778;7.094;2024-03-23T05:35:34;20.47;;;3.70;;
5845;SDS011;2949;50.778;7.094;2024-03-23T05:37:59;19.77;;;3.73;;
5845;SDS011;2949;50.778;7.094;2024-03-23T05:40:26;20.20;;;3.30;;
5845;SDS011;2949;50.778;7.094;2024-03-23T05:42:51;23.27;;;3.70;;
5845;SDS011;2949;50.778;7.094;2024-03-23T05:45:20;23.53;;;4.13;;
5845;SDS011;2949;50.778;7.094;2024-03-23T05:47:47;34.33;;;4.13;;
5845;SDS011;2949;50.778;7.094;2024-03-23T05:50:13;25.53;;;3.10;;
5845;SDS011;2949;50.778;7.094;2024-03-23T05:52:39;19.47;;;3.27;;
5845;SDS011;2949;50.778;7.094;2024-03-23T05:55:05;13.40;;;2.90;;
5845;SDS011;2949;50.778;7.094;2024-03-23T05:57:31;22.90;;;3.30;;
5845;SDS011;2949;50.778;7.094;2024-03-23T05:59:57;22.73;;;3.03;;
5845;SDS011;2949;50.778;7.094;2024-03-23T06:02:22;24.90;;;4.27;;
5845;SDS011;2949;50.778;7.094;2024-03-23T06:04:49;23.40;;;3.33;;
5845;SDS011;2949;50.778;7.094;2024-03-23T06:07:14;18.63;;;3.97;;
5845;SDS011;2949;50.778;7.094;2024-03-23T06:09:40;21.03;;;4.40;;
5845;SDS011;2949;50.778;7.094;2024-03-23T06:12:06;22.13;;;3.10;;
5845;SDS011;2949;50.778;7.094;2024-03-23T06:14:32;17.07;;;2.73;;
5845;SDS011;2949;50.778;7.094;2024-03-23T06:16:58;18.43;;;3.80;;
5845;SDS011;2949;50.778;7.094;2024-03-23T06:19:24;31.77;;;3.50;;
5845;SDS011;2949;50.778;7.094;2024-03-23T06:21:52;22.40;;;3.90;;
5845;SDS011;2949;50.778;7.094;2024-03-23T06:24:23;24.10;;;3.97;;
5845;SDS011;2949;50.778;7.094;2024-03-23T06:26:49;24.63;;;3.53;;
5845;SDS011;2949;50.778;7.094;2024-03-23T06:29:15;17.87;;;3.10;;
5845;SDS011;2949;50.778;7.094;2024-03-23T06:31:40;25.20;;;3.00;;
5845;SDS011;2949;50.778;7.094;2024-03-23T06:34:06;13.17;;;3.40;;
5845;SDS011;2949;50.778;7.094;2024-03-23T06:36:31;11.10;;;3.40;;
5845;SDS011;2949;50.778;7.094;2024-03-23T06:38:57;19.53;;;3.20;;
5845;SDS011;2949;50.778;7.094;2024-03-23T06:41:23;8.83;;;3.40;;
5845;SDS011;2949;50.778;7.094;2024-03-23T06:43:49;15.63;;;2.83;;
5845;SDS011;2949;50.778;7.094;2024-03-23T06:46:15;12.20;;;3.50;;
5845;SDS011;2949;50.778;7.094;2024-03-23T06:48:40;11.57;;;3.03;;
5845;SDS011;2949;50.778;7.094;2024-03-23T06:51:06;9.83;;;2.97;;
5845;SDS011;2949;50.778;7.094;2024-03-23T06:53:31;18.77;;;3.43;;
5845;SDS011;2949;50.778;7.094;2024-03-23T06:56:00;18.20;;;3.20;;
5845;SDS011;2949;50.778;7.094;2024-03-23T06:58:26;13.37;;;3.17;;
5845;SDS011;2949;50.778;7.094;2024-03-23T07:00:51;8.53;;;3.30;;
5845;SDS011;2949;50.778;7.094;2024-03-23T07:03:17;12.57;;;3.13;;
5845;SDS011;2949;50.778;7.094;2024-03-23T07:05:42;16.07;;;3.70;;
5845;SDS011;2949;50.778;7.094;2024-03-23T07:08:08;8.23;;;2.27;;
5845;SDS011;2949;50.778;7.094;2024-03-23T07:10:34;21.37;;;4.60;;
5845;SDS011;2949;50.778;7.094;2024-03-23T07:13:00;21.67;;;3.67;;
5845;SDS011;2949;50.778;7.094;2024-03-23T07:15:26;12.03;;;2.90;;
5845;SDS011;2949;50.778;7.094;2024-03-23T07:17:51;6.33;;;2.27;;
5845;SDS011;2949;50.778;7.094;2024-03-23T07:20:17;3.00;;;1.80;;
5845;SDS011;2949;50.778;7.094;2024-03-23T07:22:42;11.23;;;2.67;;
5845;SDS011;2949;50.778;7.094;2024-03-23T07:25:10;7.13;;;1.83;;
5845;SDS011;2949;50.778;7.094;2024-03-23T07:27:35;6.73;;;2.20;;
5845;SDS011;2949;50.778;7.094;2024-03-23T07:30:01;3.30;;;2.00;;
5845;SDS011;2949;50.778;7.094;2024-03-23T07:32:27;5.67;;;2.57;;
5845;SDS011;2949;50.778;7.094;2024-03-23T07:34:52;13.33;;;3.00;;
5845;SDS011;2949;50.778;7.094;2024-03-23T07:37:18;13.57;;;2.87;;
5845;SDS011;2949;50.778;7.094;2024-03-23T07:39:43;5.70;;;1.70;;
5845;SDS011;2949;50.778;7.094;2024-03-23T07:42:09;8.57;;;2.63;;
5845;SDS011;2949;50.778;7.094;2024-03-23T07:44:34;11.77;;;3.10;;
5845;SDS011;2949;50.778;7.094;2024-03-23T07:47:00;9.70;;;2.10;;
5845;SDS011;2949;50.778;7.094;2024-03-23T07:49:26;9.67;;;2.73;;
5845;SDS011;2949;50.778;7.094;2024-03-23T07:51:51;9.33;;;2.80;;
5845;SDS011;2949;50.778;7.094;2024-03-23T07:54:17;6.07;;;2.50;;
5845;SDS011;2949;50.778;7.094;2024-03-23T07:56:42;15.83;;;3.30;;
5845;SDS011;2949;50.778;7.094;2024-03-23T07:59:08;11.60;;;2.20;;
5845;SDS011;2949;50.778;7.094;2024-03-23T08:01:34;8.97;;;2.80;;
5845;SDS011;2949;50.778;7.094;2024-03-23T08:03:59;10.23;;;2.77;;
5845;SDS011;2949;50.778;7.094;2024-03-23T08:06:25;6.57;;;3.10;;
5845;SDS011;2949;50.778;7.094;2024-03-23T08:08:52;14.80;;;3.30;;
5845;SDS011;2949;50.778;7.094;2024-03-23T08:11:27;8.07;;;3.33;;
5845;SDS011;2949;50.778;7.094;2024-03-23T08:13:56;14.33;;;4.33;;
5845;SDS011;2949;50.778;7.094;2024-03-23T08:16:23;6.57;;;2.63;;
5845;SDS011;2949;50.778;7.094;2024-03-23T08:18:52;5.20;;;1.80;;
5845;SDS011;2949;50.778;7.094;2024-03-23T08:21:18;11.20;;;2.70;;
5845;SDS011;2949;50.778;7.094;2024-03-23T08:23:44;6.30;;;1.77;;
5845;SDS011;2949;50.778;7.094;2024-03-23T08:26:10;4.63;;;1.63;;
5845;SDS011;2949;50.778;7.094;2024-03-23T08:28:37;2.23;;;1.13;;
5845;SDS011;2949;50.778;7.094;2024-03-23T08:31:12;5.87;;;2.23;;
5845;SDS011;2949;50.778;7.094;2024-03-23T08:33:39;4.80;;;1.30;;
5845;SDS011;2949;50.778;7.094;2024-03-23T08:36:06;3.47;;;1.33;;
5845;SDS011;2949;50.778;7.094;2024-03-23T08:38:33;7.60;;;1.27;;
5845;SDS011;2949;50.778;7.094;2024-03-23T08:40:59;8.97;;;1.17;;
5845;SDS011;2949;50.778;7.094;2024-03-23T08:43:30;4.40;;;1.43;;
5845;SDS011;2949;50.778;7.094;2024-03-23T08:46:03;2.20;;;0.93;;
5845;SDS011;2949;50.778;7.094;2024-03-23T08:48:30;4.60;;;0.87;;
5845;SDS011;2949;50.778;7.094;2024-03-23T08:51:02;1.33;;;0.63;;
5845;SDS011;2949;50.778;7.094;2024-03-23T08:53:32;4.70;;;1.20;;
5845;SDS011;2949;50.778;7.094;2024-03-23T08:55:58;6.00;;;1.43;;
5845;SDS011;2949;50.778;7.094;2024-03-23T08:58:24;6.57;;;1.40;;
5845;SDS011;2949;50.778;7.094;2024-03-23T09:00:51;13.53;;;2.03;;
5845;SDS011;2949;50.778;7.094;2024-03-23T09:03:17;2.57;;;2.00;;
5845;SDS011;2949;50.778;7.094;2024-03-23T09:05:42;7.17;;;2.50;;
5845;SDS011;2949;50.778;7.094;2024-03-23T09:08:08;11.10;;;2.60;;
5845;SDS011;2949;50.778;7.094;2024-03-23T09:10:40;6.80;;;2.77;;
5845;SDS011;2949;50.778;7.094;2024-03-23T09:13:06;6.20;;;2.10;;
5845;SDS011;2949;50.778;7.094;2024-03-23T09:15:35;9.20;;;2.27;;
5845;SDS011;2949;50.778;7.094;2024-03-23T09:18:03;9.60;;;2.80;;
5845;SDS011;2949;50.778;7.094;2024-03-23T09:20:29;11.77;;;3.30;;
5845;SDS011;2949;50.778;7.094;2024-03-23T09:22:57;14.30;;;3.53;;
5845;SDS011;2949;50.778;7.094;2024-03-23T09:25:23;7.27;;;3.30;;
5845;SDS011;2949;50.778;7.094;2024-03-23T09:27:50;12.27;;;4.20;;
5845;SDS011;2949;50.778;7.094;2024-03-23T09:30:16;7.73;;;2.87;;
5845;SDS011;2949;50.778;7.094;2024-03-23T09:32:42;12.57;;;4.07;;
5845;SDS011;2949;50.778;7.094;2024-03-23T09:35:08;6.93;;;2.00;;
5845;SDS011;2949;50.778;7.094;2024-03-23T09:37:34;16.53;;;2.87;;
5845;SDS011;2949;50.778;7.094;2024-03-23T09:40:00;9.43;;;2.80;;
5845;SDS011;2949;50.778;7.094;2024-03-23T09:42:25;8.97;;;1.63;;
5845;SDS011;2949;50.778;7.094;2024-03-23T09:44:51;6.67;;;1.73;;
5845;SDS011;2949;50.778;7.094;2024-03-23T09:47:17;4.83;;;1.47;;
5845;SDS011;2949;50.778;7.094;2024-03-23T09:49:43;8.60;;;1.87;;
5845;SDS011;2949;50.778;7.094;2024-03-23T09:52:09;3.30;;;1.30;;
5845;SDS011;2949;50.778;7.094;2024-03-23T09:54:35;12.20;;;2.17;;
5845;SDS011;2949;50.778;7.094;2024-03-23T09:57:01;4.80;;;1.87;;
5845;SDS011;2949;50.778;7.094;2024-03-23T09:59:26;3.70;;;1.40;;
5845;SDS011;2949;50.778;7.094;2024-03-23T10:01:55;6.33;;;1.50;;
5845;SDS011;2949;50.778;7.094;2024-03-23T10:04:37;6.33;;;2.27;;
5845;SDS011;2949;50.778;7.094;2024-03-23T10:07:18;10.90;;;1.50;;
5845;SDS011;2949;50.778;7.094;2024-03-23T10:09:45;9.30;;;1.83;;
5845;SDS011;2949;50.778;7.094;2024-03-23T10:12:12;7.40;;;1.60;;
5845;SDS011;2949;50.778;7.094;2024-03-23T10:14:42;8.33;;;1.87;;
5845;SDS011;2949;50.778;7.094;2024-03-23T10:17:12;7.07;;;1.80;;
5845;SDS011;2949;50.778;7.094;2024-03-23T10:19:50;10.90;;;2.00;;
5845;SDS011;2949;50.778;7.094;2024-03-23T10:22:19;4.47;;;1.80;;
5845;SDS011;2949;50.778;7.094;2024-03-23T10:24:47;3.33;;;1.50;;
5845;SDS011;2949;50.778;7.094;2024-03-23T10:27:17;5.63;;;1.67;;
5845;SDS011;2949;50.778;7.094;2024-03-23T10:29:47;8.93;;;2.07;;
5845;SDS011;2949;50.778;7.094;2024-03-23T10:32:13;10.53;;;1.70;;
5845;SDS011;2949;50.778;7.094;2024-03-23T10:34:40;3.93;;;1.50;;
5845;SDS011;2949;50.778;7.094;2024-03-23T10:37:06;3.57;;;1.27;;
5845;SDS011;2949;50.778;7.094;2024-03-23T10:39:35;3.03;;;1.30;;
5845;SDS011;2949;50.778;7.094;2024-03-23T10:42:02;2.00;;;0.80;;
5845;SDS011;2949;50.778;7.094;2024-03-23T10:44:29;7.43;;;0.90;;
5845;SDS011;2949;50.778;7.094;2024-03-23T10:46:56;3.67;;;0.70;;
5845;SDS011;2949;50.778;7.094;2024-03-23T10:49:42;3.53;;;0.80;;
5845;SDS011;2949;50.778;7.094;2024-03-23T10:52:08;0.73;;;0.40;;
5845;SDS011;2949;50.778;7.094;2024-03-23T10:54:34;1.80;;;0.50;;
5845;SDS011;2949;50.778;7.094;2024-03-23T10:57:10;1.57;;;0.50;;
5845;SDS011;2949;50.778;7.094;2024-03-23T10:59:42;1.40;;;0.30;;
5845;SDS011;2949;50.778;7.094;2024-03-23T11:02:09;0.60;;;0.50;;
5845;SDS011;2949;50.778;7.094;2024-03-23T11:04:44;4.93;;;0.80;;
5845;SDS011;2949;50.778;7.094;2024-03-23T11:07:46;1.90;;;0.70;;
5845;SDS011;2949;50.778;7.094;2024-03-23T11:10:24;2.40;;;0.70;;
5845;SDS011;2949;50.778;7.094;2024-03-23T11:12:51;7.63;;;0.70;;
5845;SDS011;2949;50.778;7.094;2024-03-23T11:15:17;2.40;;;0.77;;
5845;SDS011;2949;50.778;7.094;2024-03-23T11:17:46;2.93;;;1.60;;
5845;SDS011;2949;50.778;7.094;2024-03-23T11:20:34;5.60;;;1.33;;
5845;SDS011;2949;50.778;7.094;2024-03-23T11:23:00;2.90;;;1.20;;
5845;SDS011;2949;50.778;7.094;2024-03-23T11:25:27;4.90;;;1.20;;
5845;SDS011;2949;50.778;7.094;2024-03-23T11:27:54;4.20;;;1.23;;
5845;SDS011;2949;50.778;7.094;2024-03-23T11:30:21;5.27;;;1.80;;
5845;SDS011;2949;50.778;7.094;2024-03-23T11:32:48;4.73;;;2.00;;
5845;SDS011;2949;50.778;7.094;2024-03-23T11:35:24;5.70;;;1.90;;
5845;SDS011;2949;50.778;7.094;2024-03-23T11:40:47;6.20;;;1.80;;
5845;SDS011;2949;50.778;7.094;2024-03-23T11:43:14;8.47;;;1.70;;
5845;SDS011;2949;50.778;7.094;2024-03-23T11:45:46;3.50;;;1.20;;
5845;SDS011;2949;50.778;7.094;2024-03-23T11:48:16;6.30;;;1.00;;
5845;SDS011;2949;50.778;7.094;2024-03-23T11:50:44;4.33;;;1.60;;
5845;SDS011;2949;50.778;7.094;2024-03-23T11:55:41;4.53;;;1.13;;
5845;SDS011;2949;50.778;7.094;2024-03-23T11:58:07;3.83;;;1.50;;
5845;SDS011;2949;50.778;7.094;2024-03-23T12:00:33;2.90;;;1.20;;
5845;SDS011;2949;50.778;7.094;2024-03-23T12:03:00;4.70;;;1.57;;
5845;SDS011;2949;50.778;7.094;2024-03-23T12:05:29;4.67;;;1.50;;
5845;SDS011;2949;50.778;7.094;2024-03-23T12:07:55;2.23;;;1.50;;
5845;SDS011;2949;50.778;7.094;2024-03-23T12:10:39;5.67;;;1.63;;
5845;SDS011;2949;50.778;7.094;2024-03-23T12:13:05;16.10;;;2.50;;
5845;SDS011;2949;50.778;7.094;2024-03-23T12:15:31;10.27;;;2.73;;
5845;SDS011;2949;50.778;7.094;2024-03-23T12:18:06;5.30;;;2.57;;
5845;SDS011;2949;50.778;7.094;2024-03-23T12:20:32;10.50;;;2.20;;
5845;SDS011;2949;50.778;7.094;2024-03-23T12:23:05;7.33;;;2.00;;
5845;SDS011;2949;50.778;7.094;2024-03-23T12:25:35;5.37;;;2.30;;
5845;SDS011;2949;50.778;7.094;2024-03-23T12:28:01;5.47;;;2.07;;
5845;SDS011;2949;50.778;7.094;2024-03-23T12:30:27;4.10;;;2.00;;
5845;SDS011;2949;50.778;7.094;2024-03-23T12:32:53;7.67;;;2.13;;
5845;SDS011;2949;50.778;7.094;2024-03-23T12:35:18;7.03;;;1.90;;
5845;SDS011;2949;50.778;7.094;2024-03-23T12:37:44;9.20;;;4.37;;
5845;SDS011;2949;50.778;7.094;2024-03-23T12:40:10;6.83;;;1.87;;
5845;SDS011;2949;50.778;7.094;2024-03-23T12:42:36;3.60;;;1.90;;
5845;SDS011;2949;50.778;7.094;2024-03-23T12:45:01;3.67;;;1.70;;
5845;SDS011;2949;50.778;7.094;2024-03-23T12:47:28;1.70;;;0.70;;
5845;SDS011;2949;50.778;7.094;2024-03-23T12:49:55;1.53;;;0.73;;
5845;SDS011;2949;50.778;7.094;2024-03-23T12:52:20;4.33;;;0.77;;
5845;SDS011;2949;50.778;7.094;2024-03-23T12:54:48;1.30;;;0.50;;
5845;SDS011;2949;50.778;7.094;2024-03-23T12:57:14;0.80;;;0.50;;
5845;SDS011;2949;50.778;7.094;2024-03-23T12:59:40;1.90;;;0.50;;
5845;SDS011;2949;50.778;7.094;2024-03-23T13:02:05;1.63;;;0.53;;
5845;SDS011;2949;50.778;7.094;2024-03-23T13:04:32;1.27;;;0.43;;
5845;SDS011;2949;50.778;7.094;2024-03-23T13:06:57;8.00;;;0.60;;
5845;SDS011;2949;50.778;7.094;2024-03-23T13:09:23;3.40;;;0.57;;
5845;SDS011;2949;50.778;7.094;2024-03-23T13:11:48;2.93;;;0.70;;
5845;SDS011;2949;50.778;7.094;2024-03-23T13:14:14;2.23;;;0.80;;
5845;SDS011;2949;50.778;7.094;2024-03-23T13:16:41;0.70;;;0.60;;
5845;SDS011;2949;50.778;7.094;2024-03-23T13:19:07;2.00;;;0.60;;
5845;SDS011;2949;50.778;7.094;2024-03-23T13:21:32;1.77;;;0.50;;
5845;SDS011;2949;50.778;7.094;2024-03-23T13:23:58;2.00;;;0.83;;
5845;SDS011;2949;50.778;7.094;2024-03-23T13:26:23;0.80;;;0.60;;
5845;SDS011;2949;50.778;7.094;2024-03-23T13:28:49;5.93;;;0.90;;
5845;SDS011;2949;50.778;7.094;2024-03-23T13:31:14;4.03;;;0.50;;
5845;SDS011;2949;50.778;7.094;2024-03-23T13:33:40;2.43;;;0.50;;
5845;SDS011;2949;50.778;7.094;2024-03-23T13:36:07;0.40;;;0.40;;
5845;SDS011;2949;50.778;7.094;2024-03-23T13:38:33;1.40;;;0.70;;
5845;SDS011;2949;50.778;7.094;2024-03-23T13:40:59;5.90;;;0.83;;
5845;SDS011;2949;50.778;7.094;2024-03-23T13:43:25;2.90;;;0.90;;
5845;SDS011;2949;50.778;7.094;2024-03-23T13:45:54;3.20;;;0.83;;
5845;SDS011;2949;50.778;7.094;2024-03-23T13:48:21;4.40;;;0.77;;
5845;SDS011;2949;50.778;7.094;2024-03-23T13:50:57;8.93;;;1.23;;
5845;SDS011;2949;50.778;7.094;2024-03-23T13:53:27;8.80;;;1.10;;
5845;SDS011;2949;50.778;7.094;2024-03-23T13:55:53;3.87;;;1.00;;
5845;SDS011;2949;50.778;7.094;2024-03-23T13:58:19;3.40;;;1.20;;
5845;SDS011;2949;50.778;7.094;2024-03-23T14:00:45;4.70;;;1.10;;
5845;SDS011;2949;50.778;7.094;2024-03-23T14:03:13;6.53;;;1.10;;
5845;SDS011;2949;50.778;7.094;2024-03-23T14:05:39;3.53;;;1.20;;
5845;SDS011;2949;50.778;7.094;2024-03-23T14:08:06;4.37;;;1.03;;
5845;SDS011;2949;50.778;7.094;2024-03-23T14:10:32;4.20;;;1.30;;
5845;SDS011;2949;50.778;7.094;2024-03-23T14:12:58;3.43;;;1.33;;
5845;SDS011;2949;50.778;7.094;2024-03-23T14:15:25;2.70;;;1.13;;
5845;SDS011;2949;50.778;7.094;2024-03-23T14:17:51;2.20;;;1.10;;
5845;SDS011;2949;50.778;7.094;2024-03-23T14:20:16;3.63;;;1.50;;
5845;SDS011;2949;50.778;7.094;2024-03-23T14:22:42;3.77;;;1.03;;
5845;SDS011;2949;50.778;7.094;2024-03-23T14:25:08;1.67;;;1.57;;
5845;SDS011;2949;50.778;7.094;2024-03-23T14:27:34;5.60;;;0.70;;
5845;SDS011;2949;50.778;7.094;2024-03-23T14:30:03;2.93;;;0.63;;
5845;SDS011;2949;50.778;7.094;2024-03-23T14:32:32;2.30;;;0.70;;
5845;SDS011;2949;50.778;7.094;2024-03-23T14:35:02;3.13;;;0.77;;
5845;SDS011;2949;50.778;7.094;2024-03-23T14:37:28;1.77;;;0.77;;
5845;SDS011;2949;50.778;7.094;2024-03-23T14:39:57;6.60;;;1.33;;
5845;SDS011;2949;50.778;7.094;2024-03-23T14:42:23;1.80;;;0.80;;
5845;SDS011;2949;50.778;7.094;2024-03-23T14:44:49;4.60;;;1.10;;
5845;SDS011;2949;50.778;7.094;2024-03-23T14:47:16;2.00;;;0.70;;
5845;SDS011;2949;50.778;7.094;2024-03-23T14:49:46;2.30;;;0.90;;
5845;SDS011;2949;50.778;7.094;2024-03-23T14:52:12;8.50;;;0.93;;
5845;SDS011;2949;50.778;7.094;2024-03-23T14:54:38;2.20;;;1.17;;
5845;SDS011;2949;50.778;7.094;2024-03-23T14:57:04;2.20;;;0.90;;
5845;SDS011;2949;50.778;7.094;2024-03-23T14:59:29;2.57;;;1.50;;
5845;SDS011;2949;50.778;7.094;2024-03-23T15:01:55;1.37;;;0.90;;
5845;SDS011;2949;50.778;7.094;2024-03-23T15:04:21;0.80;;;0.80;;
5845;SDS011;2949;50.778;7.094;2024-03-23T15:06:46;3.50;;;1.00;;
5845;SDS011;2949;50.778;7.094;2024-03-23T15:09:14;2.10;;;0.83;;
5845;SDS011;2949;50.778;7.094;2024-03-23T15:11:40;2.93;;;0.90;;
5845;SDS011;2949;50.778;7.094;2024-03-23T15:14:05;1.80;;;0.80;;
5845;SDS011;2949;50.778;7.094;2024-03-23T15:16:32;0.70;;;0.43;;
5845;SDS011;2949;50.778;7.094;2024-03-23T15:18:57;2.40;;;0.93;;
5845;SDS011;2949;50.778;7.094;2024-03-23T15:21:23;2.70;;;0.90;;
5845;SDS011;2949;50.778;7.094;2024-03-23T15:23:48;1.20;;;0.90;;
5845;SDS011;2949;50.778;7.094;2024-03-23T15:26:14;2.63;;;0.80;;
5845;SDS011;2949;50.778;7.094;2024-03-23T15:28:41;1.87;;;0.80;;
5845;SDS011;2949;50.778;7.094;2024-03-23T15:31:18;7.40;;;1.00;;
5845;SDS011;2949;50.778;7.094;2024-03-23T15:33:43;1.47;;;0.90;;
5845;SDS011;2949;50.778;7.094;2024-03-23T15:36:09;4.70;;;0.77;;
5845;SDS011;2949;50.778;7.094;2024-03-23T15:38:34;1.87;;;0.90;;
5845;SDS011;2949;50.778;7.094;2024-03-23T15:41:00;1.10;;;1.00;;
5845;SDS011;2949;50.778;7.094;2024-03-23T15:43:26;6.53;;;1.13;;
5845;SDS011;2949;50.778;7.094;2024-03-23T15:45:58;3.97;;;0.87;;
5845;SDS011;2949;50.778;7.094;2024-03-23T15:48:29;3.00;;;1.10;;
5845;SDS011;2949;50.778;7.094;2024-03-23T15:50:56;0.83;;;0.70;;
5845;SDS011;2949;50.778;7.094;2024-03-23T15:53:26;2.60;;;1.20;;
5845;SDS011;2949;50.778;7.094;2024-03-23T15:56:00;3.83;;;0.87;;
5845;SDS011;2949;50.778;7.094;2024-03-23T15:58:26;2.40;;;0.97;;
5845;SDS011;2949;50.778;7.094;2024-03-23T16:00:57;3.40;;;0.90;;
5845;SDS011;2949;50.778;7.094;2024-03-23T16:03:24;4.43;;;0.97;;
5845;SDS011;2949;50.778;7.094;2024-03-23T16:05:59;1.47;;;1.10;;